الصفحة الرئيسية
METAR-TAF:

METAR-TAF

مطار :

وانجارتا, أستراليا

دائرة عرض: 36-24-57S, خط طول: 146-18-25E, ارتفاع: 154 متر

مراقبة الطقس الحالي

تاريخ ووقت الإصدار 27 دقيقة قبل الساعة 21:00UTC
ريح 3 عقدة من الجنوب الغربي
درجة الحرارة 1°درجة مئوية
الرطوبة 100%
ضغط 1025 hPa
الرؤية 10 كم أو أكثر

METAR: YWGT 252100Z AUTO 22003KT 9999 // NCD 01/01 Q1025

زمن: 07:27 (21:27 UTC)

توقعات

تاريخ ووقت الإصدار 2ساعات و 3 دقيقة قبل الساعة 19:24UTC
التوقعات صالحة من25 الساعة 20 UTC إلى 26 الساعة 08 UTC
ريح 5 عقدة من الجنوب/الجنوب الشرقي
الرؤية 10 كم أو أكثر
الغيوم لا تقل 1500 م ولا وجود لمزنة ركامية السحاب الأسود
من 26 الساعة 0600 UTC
ريح 5 عقدة من الغرب
الرؤية 10 كم أو أكثر
غيوم متفرقة على ارتفاع 5000 قدم
نظرية الاحتمالات 30%
من 25 الساعة 20 UTC إلى 25 الساعة 22 UTC
الرؤية: 0500 متر
ضباب

TAF: YWGT 251924Z 2520/2608 16005KT CAVOK FM260600 28005KT 9999 SCT050 PROB30 2520/2522 0500 FG

أرصاد الطقس والتوقعات من أكثر من 4000 مطار (تقارير الطقس للمطار METAR والتنبؤ بالطقس بالمطارTAF).

المحطات المتاحة هي النقط الصفراء والحمراء على الخريطة.

حرك المؤشر فوق النقطة لمعرفة اسم المحطة.

ثم انقر لمعرفة أرصاد وتوقعات الطقس.

لتغيير الخارطة: اضغط على الأزرار الخضراء مع رمز الصليب الأسود للتكبير. على الزر الأخضر مع شرطة للتصغير، أو على الأسهم الخضراء للخرائط المجاورة.


METAR-TAF: